ADDS METAR Data INFO
IDs: Format: Raw Decoded Include TAF

Data at: 1242 UTC 19 Oct 2017

KFLL 191153Z 35003KT 10SM FEW020 FEW130 FEW250 24/24 A3000 RMK AO2 SLP157 70032 T02390239 10239 20233 53010 $
KFLL 191053Z 35004KT 10SM FEW022 FEW090 FEW130 23/23 A2998 RMK AO2 SLP152 T02330233 $
KFLL 190953Z 32003KT 10SM FEW022 FEW090 SCT200 23/23 A2997 RMK AO2 SLP147 T02330233 $
KFLL 190853Z 00000KT 10SM FEW022 SCT090 SCT180 23/23 A2997 RMK AO2 SLP147 T02330233 55014 $
KFLL 190753Z 32004KT 10SM FEW022 BKN090 23/23 A2996 RMK AO2 SLP146 T02330233 $
KFLL 190653Z 00000KT 10SM FEW020 SCT090 BKN180 BKN250 23/23 A2999 RMK AO2 SLP155 T02330233 $
KFLL 190553Z 35004KT 10SM FEW020 SCT070 BKN095 BKN150 BKN250 23/23 A3001 RMK AO2 SLP160 60032 T02330233 10267 20233 58010 $
KFLL 190453Z 36006KT 10SM FEW028 BKN075 BKN090 24/24 A3002 RMK AO2 RAB02E38 SLP163 P0012 T02390239 403000233 $
KFLL 190353Z 01007KT 9SM FEW013 SCT027 BKN080 OVC250 24/24 A3003 RMK AO2 RAE52 SLP170 VIS LWR LWR N-E P0001 T02390239 $
KFLL 190329Z 01007KT 7SM -RA FEW011 BKN018 BKN041 BKN150 24/24 A3004 RMK AO2 P0001 T02390239 $
KFLL 190253Z 34006KT 10SM -RA SCT013 BKN036 OVC070 24/24 A3004 RMK AO2 RAE22B52 SLP170 P0002 60019 T02440244 51013 $
KFLL 190153Z 02009KT 5SM +RA BR FEW021 FEW025 OVC055 24/24 A3002 RMK AO2 RAB27 SLP166 P0017 T02390239 $
KFLL 190145Z 01006KT 6SM RA BR FEW018 BKN045 OVC060 24/24 A3002 RMK AO2 RAB27 P0013 T02390239 $
KFLL 190130Z 01009KT 6SM -RA BR FEW018 BKN021 BKN065 25/24 A3002 RMK AO2 RAB27 P0002 T02500244 $
KFLL 190053Z 35003KT 10SM FEW025 SCT120 BKN250 26/23 A3002 RMK AO2 SLP164 T02610233 $
KFLL 182353Z 03003KT 10SM FEW026 SCT120 BKN250 27/24 A3000 RMK AO2 SLP158 T02670239 10300 20267 53014 $
KFLL 182253Z 03006KT 10SM FEW026 SCT090 BKN150 BKN250 27/23 A2998 RMK AO2 SLP151 T02670233 $
KFLL 182153Z 04007KT 10SM FEW026 SCT033 BKN100 28/24 A2997 RMK AO2 SLP149 T02780239 $
KFLL 182053Z 06007KT 10SM FEW022 SCT035 BKN150 BKN250 28/24 A2996 RMK AO2 SLP144 T02780239 56015 $
KFLL 181953Z 06008KT 10SM SCT023 SCT035 BKN150 BKN250 29/24 A2997 RMK AO2 SLP148 T02940244 $
KFLL 181853Z VRB06KT 10SM FEW020 FEW100 BKN150 BKN250 29/24 A2998 RMK AO2 SLP153 T02890244 $
KFLL 181753Z COR 05006KT 10SM FEW020 SCT100 BKN150 OVC250 28/24 A3000 RMK AO2 SLP158 T02830239 10283 20250 58012
KFLL 181653Z 07006KT 10SM SCT020 SCT032 SCT080 BKN150 OVC250 28/24 A3003 RMK AO2 SLP167 T02780239 $
KFLL 181553Z 06004KT 10SM SCT020 BKN030 OVC150 28/25 A3004 RMK AO2 SLP170 T02780250
KFLL 181453Z 01006KT 10SM FEW025 FEW050 BKN130 OVC250 28/25 A3003 RMK AO2 SLP170 T02780250 51013
KFLL 181353Z 35005KT 10SM FEW025 SCT050 BKN130 OVC250 26/24 A3003 RMK AO2 SLP168 T02610244
KFLL 181253Z 36004KT 10SM FEW025 FEW080 BKN130 OVC250 26/24 A3001 RMK AO2 SLP161 T02560244
KFLL 181153Z 35004KT 10SM SCT023 SCT080 BKN130 OVC250 25/24 A3000 RMK AO2 SLP157 60000 T02500244 10267 20244 51013
KFLL 181053Z COR 35005KT 10SM SCT028 BKN040 BKN130 BKN180 OVC250 25/24 A2999 RMK AO2 SLP154 T02500244
KFLL 180953Z 00000KT 10SM FEW030 FEW080 BKN170 BKN250 25/24 A2997 RMK AO2 SLP149 T02500244
KFLL 180853Z 36004KT 10SM FEW024 BKN180 BKN230 25/24 A2996 RMK AO2 SLP144 TCU DSNT SE-S 60000 T02500244 58009
KFLL 180753Z COR 01005KT 10SM FEW026 SCT080 BKN170 OVC230 24/23 A2997 RMK AO2 RAE05 SLP147 P0000 T02440233
KFLL 180653Z 35008KT 10SM -RA SCT030 BKN045 BKN080 BKN170 OVC230 25/24 A2998 RMK AO2 RAB53 SLP152 P0000 T02500244
KFLL 180553Z 36004KT 10SM SCT026 BKN035 BKN070 BKN170 OVC230 27/23 A2999 RMK AO2 SLP153 VCSH S-W-NW T02670233 10278 20267 58010
KFLL 180529Z 06005KT 10SM BKN028 BKN035 BKN070 BKN170 OVC230 27/24 A2999 RMK AO2 T02720239
KFLL 180453Z 06005KT 10SM SCT028 SCT032 BKN047 BKN170 OVC230 27/24 A3000 RMK AO2 SLP157 T02720239 403060239
KFLL 180353Z 06006KT 10SM SCT026 OVC200 27/24 A3001 RMK AO2 SLP161 T02720239
KFLL 180253Z 06006KT 10SM FEW025 SCT038 BKN250 27/23 A3002 RMK AO2 SLP164 T02720233 51014
KFLL 180153Z 06007KT 10SM SCT027 SCT120 BKN250 27/23 A3001 RMK AO2 SLP160 T02720233
KFLL 180053Z 06008KT 10SM SCT026 BKN120 BKN250 27/23 A2999 RMK AO2 SLP156 T02720233